sensor_id;sensor_type;location;lat;lon;timestamp;pressure;altitude;pressure_sealevel;temperature;humidity
12666;BME280;58531;59.050;17.416;2022-07-29T00:01:19;101595.78;;;8.84;98.55
12666;BME280;58531;59.050;17.416;2022-07-29T00:03:46;101597.00;;;8.80;98.34
12666;BME280;58531;59.050;17.416;2022-07-29T00:06:12;101592.50;;;8.73;97.97
12666;BME280;58531;59.050;17.416;2022-07-29T00:08:40;101588.38;;;8.69;98.10
12666;BME280;58531;59.050;17.416;2022-07-29T00:11:07;101594.19;;;8.60;97.77
12666;BME280;58531;59.050;17.416;2022-07-29T00:13:34;101590.06;;;8.52;97.74
12666;BME280;58531;59.050;17.416;2022-07-29T00:16:00;101588.22;;;8.46;97.94
12666;BME280;58531;59.050;17.416;2022-07-29T00:18:27;101587.88;;;8.44;98.21
12666;BME280;58531;59.050;17.416;2022-07-29T00:20:54;101594.75;;;8.41;98.27
12666;BME280;58531;59.050;17.416;2022-07-29T00:23:20;101589.47;;;8.38;98.22
12666;BME280;58531;59.050;17.416;2022-07-29T00:25:48;101595.59;;;8.35;98.25
12666;BME280;58531;59.050;17.416;2022-07-29T00:28:15;101592.94;;;8.35;98.71
12666;BME280;58531;59.050;17.416;2022-07-29T00:30:41;101590.94;;;8.42;99.55
12666;BME280;58531;59.050;17.416;2022-07-29T00:33:09;101593.25;;;8.40;99.12
12666;BME280;58531;59.050;17.416;2022-07-29T00:35:35;101592.94;;;8.35;98.71
12666;BME280;58531;59.050;17.416;2022-07-29T00:38:11;101595.66;;;8.24;98.24
12666;BME280;58531;59.050;17.416;2022-07-29T00:40:37;101594.59;;;8.15;98.10
12666;BME280;58531;59.050;17.416;2022-07-29T00:43:05;101592.75;;;8.09;98.11
12666;BME280;58531;59.050;17.416;2022-07-29T00:45:32;101601.16;;;8.04;98.17
12666;BME280;58531;59.050;17.416;2022-07-29T00:47:59;101596.63;;;8.01;98.42
12666;BME280;58531;59.050;17.416;2022-07-29T00:50:26;101600.50;;;7.93;98.07
12666;BME280;58531;59.050;17.416;2022-07-29T00:52:54;101601.69;;;7.88;98.46
12666;BME280;58531;59.050;17.416;2022-07-29T00:55:21;101598.66;;;7.83;98.39
12666;BME280;58531;59.050;17.416;2022-07-29T00:57:48;101596.78;;;7.80;98.47
12666;BME280;58531;59.050;17.416;2022-07-29T01:00:19;101601.38;;;7.79;98.83
12666;BME280;58531;59.050;17.416;2022-07-29T01:02:46;101598.28;;;7.84;99.19
12666;BME280;58531;59.050;17.416;2022-07-29T01:05:15;101595.59;;;7.88;99.22
12666;BME280;58531;59.050;17.416;2022-07-29T01:07:43;101599.81;;;7.85;98.88
12666;BME280;58531;59.050;17.416;2022-07-29T01:10:12;101607.41;;;7.83;99.57
12666;BME280;58531;59.050;17.416;2022-07-29T01:12:39;101597.16;;;7.85;100.00
12666;BME280;58531;59.050;17.416;2022-07-29T01:15:08;101597.94;;;7.82;99.77
12666;BME280;58531;59.050;17.416;2022-07-29T01:17:42;101596.06;;;7.76;99.33
12666;BME280;58531;59.050;17.416;2022-07-29T01:20:13;101606.72;;;7.72;99.38
12666;BME280;58531;59.050;17.416;2022-07-29T01:22:58;101604.50;;;7.67;99.23
12666;BME280;58531;59.050;17.416;2022-07-29T01:25:45;101601.88;;;7.60;99.41
12666;BME280;58531;59.050;17.416;2022-07-29T01:28:34;101601.50;;;7.58;99.51
12666;BME280;58531;59.050;17.416;2022-07-29T01:31:03;101603.78;;;7.60;99.99
12666;BME280;58531;59.050;17.416;2022-07-29T01:33:33;101603.41;;;7.58;99.93
12666;BME280;58531;59.050;17.416;2022-07-29T01:36:18;101604.94;;;7.55;99.87
12666;BME280;58531;59.050;17.416;2022-07-29T01:38:50;101607.63;;;7.48;99.59
12666;BME280;58531;59.050;17.416;2022-07-29T01:41:20;101607.28;;;7.46;99.64
12666;BME280;58531;59.050;17.416;2022-07-29T01:43:54;101610.34;;;7.45;99.56
12666;BME280;58531;59.050;17.416;2022-07-29T01:46:27;101609.22;;;7.39;99.40
12666;BME280;58531;59.050;17.416;2022-07-29T01:48:59;101608.47;;;7.35;99.71
12666;BME280;58531;59.050;17.416;2022-07-29T01:51:32;101614.97;;;7.30;99.54
12666;BME280;58531;59.050;17.416;2022-07-29T01:54:10;101615.31;;;7.36;99.73
12666;BME280;58531;59.050;17.416;2022-07-29T01:56:39;101610.44;;;7.27;99.41
12666;BME280;58531;59.050;17.416;2022-07-29T01:59:09;101617.66;;;7.23;99.45
12666;BME280;58531;59.050;17.416;2022-07-29T02:01:37;101607.84;;;7.13;98.94
12666;BME280;58531;59.050;17.416;2022-07-29T02:04:07;101608.63;;;7.10;99.25
12666;BME280;58531;59.050;17.416;2022-07-29T02:06:37;101613.19;;;7.06;99.33
12666;BME280;58531;59.050;17.416;2022-07-29T02:09:05;101615.47;;;7.04;99.57
12666;BME280;58531;59.050;17.416;2022-07-29T02:11:33;101604.84;;;7.04;99.87
12666;BME280;58531;59.050;17.416;2022-07-29T02:14:01;101610.16;;;7.08;100.00
12666;BME280;58531;59.050;17.416;2022-07-29T02:16:33;101604.47;;;7.06;100.00
12666;BME280;58531;59.050;17.416;2022-07-29T02:19:02;101604.84;;;7.04;99.86
12666;BME280;58531;59.050;17.416;2022-07-29T02:21:32;101607.09;;;7.09;100.00
12666;BME280;58531;59.050;17.416;2022-07-29T02:23:59;101601.78;;;7.09;100.00
12666;BME280;58531;59.050;17.416;2022-07-29T02:26:27;101616.97;;;7.09;99.92
12666;BME280;58531;59.050;17.416;2022-07-29T02:28:57;101604.81;;;7.11;100.00
12666;BME280;58531;59.050;17.416;2022-07-29T02:31:29;101606.72;;;7.11;100.00
12666;BME280;58531;59.050;17.416;2022-07-29T02:34:01;101601.03;;;7.05;100.00
12666;BME280;58531;59.050;17.416;2022-07-29T02:36:29;101613.22;;;7.03;100.00
12666;BME280;58531;59.050;17.416;2022-07-29T02:38:57;101609.41;;;7.04;100.00
12666;BME280;58531;59.050;17.416;2022-07-29T02:41:28;101604.09;;;7.04;100.00
12666;BME280;58531;59.050;17.416;2022-07-29T02:43:57;101606.75;;;7.00;99.95
12666;BME280;58531;59.050;17.416;2022-07-29T02:46:28;101609.03;;;7.02;100.00
12666;BME280;58531;59.050;17.416;2022-07-29T02:49:01;101606.00;;;7.03;100.00
12666;BME280;58531;59.050;17.416;2022-07-29T02:51:34;101607.88;;;7.06;100.00
12666;BME280;58531;59.050;17.416;2022-07-29T02:54:07;101617.72;;;7.09;100.00
12666;BME280;58531;59.050;17.416;2022-07-29T02:56:36;101618.88;;;7.12;100.00
12666;BME280;58531;59.050;17.416;2022-07-29T02:59:07;101619.94;;;7.18;100.00
12666;BME280;58531;59.050;17.416;2022-07-29T03:01:39;101618.03;;;7.25;100.00
12666;BME280;58531;59.050;17.416;2022-07-29T03:04:11;101620.66;;;7.32;100.00
12666;BME280;58531;59.050;17.416;2022-07-29T03:06:40;101628.22;;;7.37;100.00
12666;BME280;58531;59.050;17.416;2022-07-29T03:09:07;101624.41;;;7.42;100.00
12666;BME280;58531;59.050;17.416;2022-07-29T03:11:35;101632.69;;;7.51;100.00
12666;BME280;58531;59.050;17.416;2022-07-29T03:14:02;101634.53;;;7.61;100.00
12666;BME280;58531;59.050;17.416;2022-07-29T03:16:29;101628.66;;;7.87;100.00
12666;BME280;58531;59.050;17.416;2022-07-29T03:18:58;101635.22;;;8.22;100.00
12666;BME280;58531;59.050;17.416;2022-07-29T03:21:26;101638.81;;;8.46;100.00
12666;BME280;58531;59.050;17.416;2022-07-29T03:23:53;101640.16;;;8.64;100.00
12666;BME280;58531;59.050;17.416;2022-07-29T03:26:19;101636.88;;;8.87;100.00
12666;BME280;58531;59.050;17.416;2022-07-29T03:28:46;101640.94;;;8.95;100.00
12666;BME280;58531;59.050;17.416;2022-07-29T03:31:13;101640.06;;;9.05;100.00
12666;BME280;58531;59.050;17.416;2022-07-29T03:33:39;101646.44;;;9.14;100.00
12666;BME280;58531;59.050;17.416;2022-07-29T03:36:06;101641.84;;;9.15;100.00
12666;BME280;58531;59.050;17.416;2022-07-29T03:38:35;101647.91;;;9.19;100.00
12666;BME280;58531;59.050;17.416;2022-07-29T03:41:06;101645.84;;;9.30;100.00
12666;BME280;58531;59.050;17.416;2022-07-29T03:43:36;101643.91;;;9.34;100.00
12666;BME280;58531;59.050;17.416;2022-07-29T03:46:06;101647.66;;;9.36;100.00
12666;BME280;58531;59.050;17.416;2022-07-29T03:48:36;101640.78;;;9.38;100.00
12666;BME280;58531;59.050;17.416;2022-07-29T03:51:03;101643.31;;;9.49;100.00
12666;BME280;58531;59.050;17.416;2022-07-29T03:53:30;101643.06;;;9.66;100.00
12666;BME280;58531;59.050;17.416;2022-07-29T03:56:00;101645.28;;;9.94;100.00
12666;BME280;58531;59.050;17.416;2022-07-29T03:58:30;101649.88;;;10.43;100.00
12666;BME280;58531;59.050;17.416;2022-07-29T04:00:58;101653.50;;;11.66;100.00
12666;BME280;58531;59.050;17.416;2022-07-29T04:03:25;101649.59;;;13.44;100.00
12666;BME280;58531;59.050;17.416;2022-07-29T04:06:00;101660.06;;;15.02;100.00
12666;BME280;58531;59.050;17.416;2022-07-29T04:08:27;101659.19;;;16.23;83.05
12666;BME280;58531;59.050;17.416;2022-07-29T04:10:54;101656.09;;;17.70;80.26
12666;BME280;58531;59.050;17.416;2022-07-29T04:13:23;101664.34;;;19.27;66.23
12666;BME280;58531;59.050;17.416;2022-07-29T04:15:50;101666.63;;;20.37;57.32
12666;BME280;58531;59.050;17.416;2022-07-29T04:18:16;101677.75;;;21.10;52.13
12666;BME280;58531;59.050;17.416;2022-07-29T04:20:43;101679.88;;;21.98;48.77
12666;BME280;58531;59.050;17.416;2022-07-29T04:23:10;101683.66;;;22.92;45.98
12666;BME280;58531;59.050;17.416;2022-07-29T04:25:38;101682.16;;;23.68;43.86
12666;BME280;58531;59.050;17.416;2022-07-29T04:28:05;101684.44;;;24.31;42.29
12666;BME280;58531;59.050;17.416;2022-07-29T04:30:34;101685.38;;;24.91;41.71
12666;BME280;58531;59.050;17.416;2022-07-29T04:33:01;101693.94;;;25.40;39.78
12666;BME280;58531;59.050;17.416;2022-07-29T04:35:28;101689.59;;;25.50;38.78
12666;BME280;58531;59.050;17.416;2022-07-29T04:37:55;101691.16;;;25.70;38.40
12666;BME280;58531;59.050;17.416;2022-07-29T04:40:22;101701.13;;;26.15;37.11
12666;BME280;58531;59.050;17.416;2022-07-29T04:42:48;101695.72;;;26.83;36.18
12666;BME280;58531;59.050;17.416;2022-07-29T04:45:15;101694.00;;;27.30;35.25
12666;BME280;58531;59.050;17.416;2022-07-29T04:47:43;101698.53;;;27.72;34.97
12666;BME280;58531;59.050;17.416;2022-07-29T04:50:10;101703.16;;;28.16;34.02
12666;BME280;58531;59.050;17.416;2022-07-29T04:52:37;101708.13;;;28.64;32.81
12666;BME280;58531;59.050;17.416;2022-07-29T04:55:05;101707.66;;;29.06;32.26
12666;BME280;58531;59.050;17.416;2022-07-29T04:57:32;101716.91;;;29.36;31.80
12666;BME280;58531;59.050;17.416;2022-07-29T04:59:59;101709.66;;;29.05;32.13
12666;BME280;58531;59.050;17.416;2022-07-29T05:02:26;101705.56;;;29.40;31.30
12666;BME280;58531;59.050;17.416;2022-07-29T05:04:54;101712.22;;;29.03;32.02
12666;BME280;58531;59.050;17.416;2022-07-29T05:07:21;101713.69;;;29.45;31.00
12666;BME280;58531;59.050;17.416;2022-07-29T05:09:47;101715.84;;;29.95;30.29
12666;BME280;58531;59.050;17.416;2022-07-29T05:12:14;101723.81;;;30.41;29.50
12666;BME280;58531;59.050;17.416;2022-07-29T05:14:41;101721.53;;;30.75;29.29
12666;BME280;58531;59.050;17.416;2022-07-29T05:17:07;101728.03;;;31.08;29.18
12666;BME280;58531;59.050;17.416;2022-07-29T05:19:34;101722.16;;;31.26;29.27
12666;BME280;58531;59.050;17.416;2022-07-29T05:22:02;101724.38;;;31.13;29.34
12666;BME280;58531;59.050;17.416;2022-07-29T05:24:29;101723.66;;;31.35;29.17
12666;BME280;58531;59.050;17.416;2022-07-29T05:26:55;101715.91;;;31.11;30.01
12666;BME280;58531;59.050;17.416;2022-07-29T05:29:22;101726.38;;;31.49;29.94
12666;BME280;58531;59.050;17.416;2022-07-29T05:31:48;101730.44;;;31.78;29.68
12666;BME280;58531;59.050;17.416;2022-07-29T05:34:19;101735.06;;;31.24;30.83
12666;BME280;58531;59.050;17.416;2022-07-29T05:36:46;101733.13;;;31.93;29.47
12666;BME280;58531;59.050;17.416;2022-07-29T05:39:14;101740.47;;;32.06;29.29
12666;BME280;58531;59.050;17.416;2022-07-29T05:41:41;101739.38;;;32.01;28.43
12666;BME280;58531;59.050;17.416;2022-07-29T05:44:07;101738.47;;;31.91;29.59
12666;BME280;58531;59.050;17.416;2022-07-29T05:46:34;101736.78;;;32.03;28.90
12666;BME280;58531;59.050;17.416;2022-07-29T05:49:00;101740.84;;;30.75;31.18
12666;BME280;58531;59.050;17.416;2022-07-29T05:51:28;101742.03;;;31.69;30.05
12666;BME280;58531;59.050;17.416;2022-07-29T05:53:55;101749.03;;;31.70;29.54
12666;BME280;58531;59.050;17.416;2022-07-29T05:56:23;101741.25;;;31.91;29.64
12666;BME280;58531;59.050;17.416;2022-07-29T05:58:49;101744.50;;;30.63;30.87
12666;BME280;58531;59.050;17.416;2022-07-29T06:01:16;101747.09;;;32.57;28.73
12666;BME280;58531;59.050;17.416;2022-07-29T06:03:42;101747.53;;;33.10;27.59
12666;BME280;58531;59.050;17.416;2022-07-29T06:06:09;101743.56;;;32.96;27.60
12666;BME280;58531;59.050;17.416;2022-07-29T06:08:36;101747.47;;;33.42;26.20
12666;BME280;58531;59.050;17.416;2022-07-29T06:11:03;101747.47;;;33.83;25.63
12666;BME280;58531;59.050;17.416;2022-07-29T06:13:32;101744.97;;;31.12;28.18
12666;BME280;58531;59.050;17.416;2022-07-29T06:15:58;101746.00;;;32.06;28.09
12666;BME280;58531;59.050;17.416;2022-07-29T06:18:25;101745.81;;;32.11;28.25
12666;BME280;58531;59.050;17.416;2022-07-29T06:20:52;101742.06;;;33.27;26.95
12666;BME280;58531;59.050;17.416;2022-07-29T06:23:19;101739.50;;;32.26;27.07
12666;BME280;58531;59.050;17.416;2022-07-29T06:25:46;101744.97;;;32.80;27.73
12666;BME280;58531;59.050;17.416;2022-07-29T06:28:13;101743.81;;;31.89;26.50
12666;BME280;58531;59.050;17.416;2022-07-29T06:30:42;101738.91;;;32.35;26.18
12666;BME280;58531;59.050;17.416;2022-07-29T06:33:08;101742.22;;;33.04;25.71
12666;BME280;58531;59.050;17.416;2022-07-29T06:35:35;101739.97;;;34.10;23.95
12666;BME280;58531;59.050;17.416;2022-07-29T06:38:02;101735.41;;;33.30;24.71
12666;BME280;58531;59.050;17.416;2022-07-29T06:40:29;101740.81;;;33.62;24.72
12666;BME280;58531;59.050;17.416;2022-07-29T06:43:13;101743.59;;;35.35;21.39
12666;BME280;58531;59.050;17.416;2022-07-29T06:45:41;101737.56;;;34.93;22.16
12666;BME280;58531;59.050;17.416;2022-07-29T06:48:08;101742.00;;;33.34;23.05
12666;BME280;58531;59.050;17.416;2022-07-29T06:50:35;101738.09;;;33.13;23.53
12666;BME280;58531;59.050;17.416;2022-07-29T06:53:02;101732.03;;;34.06;23.47
12666;BME280;58531;59.050;17.416;2022-07-29T06:55:29;101738.81;;;33.21;21.74
12666;BME280;58531;59.050;17.416;2022-07-29T06:57:55;101733.50;;;31.97;23.78
12666;BME280;58531;59.050;17.416;2022-07-29T07:00:22;101737.06;;;31.46;22.89
12666;BME280;58531;59.050;17.416;2022-07-29T07:02:50;101739.38;;;32.01;22.89
12666;BME280;58531;59.050;17.416;2022-07-29T07:05:17;101736.81;;;32.50;22.26
12666;BME280;58531;59.050;17.416;2022-07-29T07:07:43;101747.00;;;33.53;22.40
12666;BME280;58531;59.050;17.416;2022-07-29T07:10:10;101740.59;;;34.35;21.42
12666;BME280;58531;59.050;17.416;2022-07-29T07:12:36;101748.28;;;35.06;20.76
12666;BME280;58531;59.050;17.416;2022-07-29T07:15:04;101739.91;;;33.84;22.89
12666;BME280;58531;59.050;17.416;2022-07-29T07:17:31;101738.09;;;33.96;21.08
12666;BME280;58531;59.050;17.416;2022-07-29T07:19:59;101741.44;;;34.71;20.85
12666;BME280;58531;59.050;17.416;2022-07-29T07:22:25;101733.53;;;34.24;20.10
12666;BME280;58531;59.050;17.416;2022-07-29T07:24:52;101738.44;;;34.86;19.63
12666;BME280;58531;59.050;17.416;2022-07-29T07:27:18;101733.84;;;33.95;19.19
12666;BME280;58531;59.050;17.416;2022-07-29T07:29:45;101725.53;;;33.95;19.97
12666;BME280;58531;59.050;17.416;2022-07-29T07:32:12;101730.94;;;33.76;19.96
12666;BME280;58531;59.050;17.416;2022-07-29T07:34:41;101728.84;;;34.27;20.12
12666;BME280;58531;59.050;17.416;2022-07-29T07:37:09;101722.72;;;32.31;21.34
12666;BME280;58531;59.050;17.416;2022-07-29T07:39:36;101725.78;;;32.82;21.40
12666;BME280;58531;59.050;17.416;2022-07-29T07:42:03;101728.00;;;33.74;21.92
12666;BME280;58531;59.050;17.416;2022-07-29T07:44:29;101724.53;;;31.74;22.99
12666;BME280;58531;59.050;17.416;2022-07-29T07:46:56;101715.69;;;32.70;22.46
12666;BME280;58531;59.050;17.416;2022-07-29T07:49:22;101719.56;;;31.65;24.64
12666;BME280;58531;59.050;17.416;2022-07-29T07:51:49;101723.38;;;31.92;24.54
12666;BME280;58531;59.050;17.416;2022-07-29T07:54:19;101719.16;;;33.02;20.81
12666;BME280;58531;59.050;17.416;2022-07-29T07:56:45;101713.06;;;32.79;21.46
12666;BME280;58531;59.050;17.416;2022-07-29T07:59:14;101721.75;;;33.00;22.22
12666;BME280;58531;59.050;17.416;2022-07-29T08:01:40;101718.38;;;33.09;22.32
12666;BME280;58531;59.050;17.416;2022-07-29T08:04:07;101705.91;;;33.42;21.56
12666;BME280;58531;59.050;17.416;2022-07-29T08:06:34;101717.41;;;32.65;21.13
12666;BME280;58531;59.050;17.416;2022-07-29T08:09:01;101715.50;;;31.74;22.36
12666;BME280;58531;59.050;17.416;2022-07-29T08:11:29;101718.31;;;30.49;24.95
12666;BME280;58531;59.050;17.416;2022-07-29T08:13:55;101708.50;;;28.81;25.47
12666;BME280;58531;59.050;17.416;2022-07-29T08:16:22;101712.66;;;27.00;30.08
12666;BME280;58531;59.050;17.416;2022-07-29T08:18:51;101715.94;;;26.43;29.15
12666;BME280;58531;59.050;17.416;2022-07-29T08:21:23;101711.09;;;25.41;31.18
12666;BME280;58531;59.050;17.416;2022-07-29T08:23:50;101715.81;;;25.40;33.10
12666;BME280;58531;59.050;17.416;2022-07-29T08:26:18;101707.94;;;24.97;30.59
12666;BME280;58531;59.050;17.416;2022-07-29T08:28:46;101715.59;;;25.38;31.71
12666;BME280;58531;59.050;17.416;2022-07-29T08:31:16;101703.13;;;25.08;32.00
12666;BME280;58531;59.050;17.416;2022-07-29T08:33:43;101706.94;;;24.59;33.17
12666;BME280;58531;59.050;17.416;2022-07-29T08:36:09;101702.03;;;24.41;34.96
12666;BME280;58531;59.050;17.416;2022-07-29T08:38:38;101708.97;;;24.48;36.05
12666;BME280;58531;59.050;17.416;2022-07-29T08:41:05;101710.63;;;24.62;35.04
12666;BME280;58531;59.050;17.416;2022-07-29T08:43:31;101703.56;;;25.23;32.54
12666;BME280;58531;59.050;17.416;2022-07-29T08:46:01;101706.72;;;25.27;32.62
12666;BME280;58531;59.050;17.416;2022-07-29T08:48:28;101699.19;;;25.38;32.90
12666;BME280;58531;59.050;17.416;2022-07-29T08:50:56;101706.34;;;25.12;34.15
12666;BME280;58531;59.050;17.416;2022-07-29T08:53:25;101704.31;;;24.26;36.57
12666;BME280;58531;59.050;17.416;2022-07-29T08:55:53;101700.94;;;24.09;36.44
12666;BME280;58531;59.050;17.416;2022-07-29T08:58:20;101705.16;;;23.99;36.29
12666;BME280;58531;59.050;17.416;2022-07-29T09:00:50;101707.44;;;23.68;37.26
12666;BME280;58531;59.050;17.416;2022-07-29T09:03:20;101704.72;;;23.02;35.13
12666;BME280;58531;59.050;17.416;2022-07-29T09:05:49;101701.84;;;22.42;39.76
12666;BME280;58531;59.050;17.416;2022-07-29T09:08:16;101705.44;;;22.17;40.07
12666;BME280;58531;59.050;17.416;2022-07-29T09:10:43;101699.03;;;21.78;36.71
12666;BME280;58531;59.050;17.416;2022-07-29T09:13:10;101699.75;;;21.73;39.09
12666;BME280;58531;59.050;17.416;2022-07-29T09:15:37;101706.84;;;22.02;40.63
12666;BME280;58531;59.050;17.416;2022-07-29T09:18:03;101697.56;;;22.25;38.35
12666;BME280;58531;59.050;17.416;2022-07-29T09:20:31;101696.50;;;22.75;35.50
12666;BME280;58531;59.050;17.416;2022-07-29T09:23:12;101703.00;;;23.27;34.55
12666;BME280;58531;59.050;17.416;2022-07-29T09:25:40;101705.97;;;23.07;34.56
12666;BME280;58531;59.050;17.416;2022-07-29T09:28:08;101703.00;;;23.27;32.46
12666;BME280;58531;59.050;17.416;2022-07-29T09:30:35;101705.50;;;23.58;33.54
12666;BME280;58531;59.050;17.416;2022-07-29T09:33:03;101699.25;;;23.90;32.16
12666;BME280;58531;59.050;17.416;2022-07-29T09:35:31;101701.63;;;24.21;33.23
12666;BME280;58531;59.050;17.416;2022-07-29T09:38:09;101701.00;;;24.44;33.09
12666;BME280;58531;59.050;17.416;2022-07-29T09:40:36;101692.75;;;24.61;34.35
12666;BME280;58531;59.050;17.416;2022-07-29T09:43:10;101695.13;;;25.45;31.15
12666;BME280;58531;59.050;17.416;2022-07-29T09:45:37;101689.63;;;25.21;30.65
12666;BME280;58531;59.050;17.416;2022-07-29T09:48:15;101700.50;;;25.56;31.28
12666;BME280;58531;59.050;17.416;2022-07-29T09:50:45;101691.31;;;25.24;32.07
12666;BME280;58531;59.050;17.416;2022-07-29T09:53:12;101696.34;;;25.20;29.34
12666;BME280;58531;59.050;17.416;2022-07-29T09:55:55;101691.25;;;24.65;31.17
12666;BME280;58531;59.050;17.416;2022-07-29T09:58:22;101685.63;;;24.87;31.45
12666;BME280;58531;59.050;17.416;2022-07-29T10:00:50;101691.03;;;24.58;29.35
12666;BME280;58531;59.050;17.416;2022-07-29T10:03:17;101696.78;;;24.49;32.11
12666;BME280;58531;59.050;17.416;2022-07-29T10:05:46;101692.19;;;24.73;31.69
12666;BME280;58531;59.050;17.416;2022-07-29T10:08:13;101692.28;;;24.97;30.14
12666;BME280;58531;59.050;17.416;2022-07-29T10:10:41;101693.44;;;25.07;28.93
12666;BME280;58531;59.050;17.416;2022-07-29T10:13:10;101696.41;;;25.09;30.05
12666;BME280;58531;59.050;17.416;2022-07-29T10:15:39;101696.50;;;24.98;32.13
12666;BME280;58531;59.050;17.416;2022-07-29T10:18:09;101687.59;;;24.92;28.96
12666;BME280;58531;59.050;17.416;2022-07-29T10:20:37;101695.91;;;25.40;29.42
12666;BME280;58531;59.050;17.416;2022-07-29T10:23:05;101693.00;;;25.86;29.28
12666;BME280;58531;59.050;17.416;2022-07-29T10:25:32;101695.38;;;25.71;27.57
12666;BME280;58531;59.050;17.416;2022-07-29T10:27:59;101686.75;;;25.61;29.12
12666;BME280;58531;59.050;17.416;2022-07-29T10:30:26;101684.81;;;25.32;29.57
12666;BME280;58531;59.050;17.416;2022-07-29T10:33:17;101676.72;;;24.81;29.02
12666;BME280;58531;59.050;17.416;2022-07-29T10:38:53;101676.16;;;23.75;31.59
12666;BME280;58531;59.050;17.416;2022-07-29T10:41:43;101678.25;;;23.14;30.75
12666;BME280;58531;59.050;17.416;2022-07-29T10:44:16;101671.53;;;23.26;32.58
12666;BME280;58531;59.050;17.416;2022-07-29T10:46:43;101672.50;;;23.50;32.73
12666;BME280;58531;59.050;17.416;2022-07-29T10:49:11;101672.00;;;23.57;32.01
12666;BME280;58531;59.050;17.416;2022-07-29T10:51:59;101674.72;;;23.63;31.95
12666;BME280;58531;59.050;17.416;2022-07-29T10:54:41;101669.53;;;23.65;30.71
12666;BME280;58531;59.050;17.416;2022-07-29T10:57:28;101670.47;;;23.84;30.43
12666;BME280;58531;59.050;17.416;2022-07-29T11:00:30;101665.09;;;24.29;32.05
12666;BME280;58531;59.050;17.416;2022-07-29T11:02:57;101670.94;;;24.90;30.30
12666;BME280;58531;59.050;17.416;2022-07-29T11:05:25;101677.72;;;24.78;30.47
12666;BME280;58531;59.050;17.416;2022-07-29T11:08:17;101665.44;;;24.61;31.99
12666;BME280;58531;59.050;17.416;2022-07-29T11:10:47;101659.50;;;24.05;29.93
12666;BME280;58531;59.050;17.416;2022-07-29T11:13:48;101659.56;;;23.89;31.33
12666;BME280;58531;59.050;17.416;2022-07-29T11:16:16;101659.38;;;23.49;30.81
12666;BME280;58531;59.050;17.416;2022-07-29T11:19:18;101660.88;;;23.39;32.02
12666;BME280;58531;59.050;17.416;2022-07-29T11:21:45;101661.63;;;23.23;31.08
12666;BME280;58531;59.050;17.416;2022-07-29T11:24:15;101651.00;;;23.14;30.38
12666;BME280;58531;59.050;17.416;2022-07-29T11:26:44;101657.91;;;23.04;30.55
12666;BME280;58531;59.050;17.416;2022-07-29T11:29:18;101658.38;;;22.97;31.12
12666;BME280;58531;59.050;17.416;2022-07-29T11:31:48;101664.09;;;22.99;32.79
12666;BME280;58531;59.050;17.416;2022-07-29T11:34:24;101656.16;;;22.84;34.18
12666;BME280;58531;59.050;17.416;2022-07-29T11:40:21;101654.53;;;24.09;29.86
12666;BME280;58531;59.050;17.416;2022-07-29T11:42:50;101650.66;;;24.34;32.45
12666;BME280;58531;59.050;17.416;2022-07-29T11:45:45;101649.78;;;24.96;31.73
12666;BME280;58531;59.050;17.416;2022-07-29T11:48:16;101652.16;;;25.16;31.29
12666;BME280;58531;59.050;17.416;2022-07-29T11:50:44;101650.91;;;25.41;28.56
12666;BME280;58531;59.050;17.416;2022-07-29T11:53:12;101650.53;;;25.26;31.60
12666;BME280;58531;59.050;17.416;2022-07-29T11:55:40;101651.19;;;25.08;29.60
12666;BME280;58531;59.050;17.416;2022-07-29T11:58:08;101643.88;;;25.22;30.93
12666;BME280;58531;59.050;17.416;2022-07-29T12:00:37;101651.63;;;25.18;33.14
12666;BME280;58531;59.050;17.416;2022-07-29T12:03:05;101642.84;;;24.60;31.28
12666;BME280;58531;59.050;17.416;2022-07-29T12:05:40;101638.09;;;24.66;31.35
12666;BME280;58531;59.050;17.416;2022-07-29T12:08:10;101644.22;;;24.78;31.05
12666;BME280;58531;59.050;17.416;2022-07-29T12:10:37;101643.16;;;24.51;31.85
12666;BME280;58531;59.050;17.416;2022-07-29T12:13:04;101643.84;;;24.11;28.67
12666;BME280;58531;59.050;17.416;2022-07-29T12:15:33;101641.44;;;24.43;29.80
12666;BME280;58531;59.050;17.416;2022-07-29T12:18:09;101645.41;;;24.42;34.39
12666;BME280;58531;59.050;17.416;2022-07-29T12:20:36;101640.91;;;24.55;32.78
12666;BME280;58531;59.050;17.416;2022-07-29T12:23:05;101641.47;;;24.37;32.96
12666;BME280;58531;59.050;17.416;2022-07-29T12:25:33;101638.22;;;23.93;31.82
12666;BME280;58531;59.050;17.416;2022-07-29T12:28:02;101632.09;;;23.49;30.57
12666;BME280;58531;59.050;17.416;2022-07-29T12:30:41;101635.59;;;23.00;33.67
12666;BME280;58531;59.050;17.416;2022-07-29T12:33:17;101633.63;;;22.95;32.55
12666;BME280;58531;59.050;17.416;2022-07-29T12:35:46;101635.38;;;23.20;32.85
12666;BME280;58531;59.050;17.416;2022-07-29T12:38:13;101645.47;;;23.69;34.02
12666;BME280;58531;59.050;17.416;2022-07-29T12:40:40;101633.47;;;23.94;31.94
12666;BME280;58531;59.050;17.416;2022-07-29T12:43:09;101629.19;;;24.14;32.42
12666;BME280;58531;59.050;17.416;2022-07-29T12:45:36;101634.66;;;24.14;32.98
12666;BME280;58531;59.050;17.416;2022-07-29T12:48:06;101630.19;;;24.06;30.35
12666;BME280;58531;59.050;17.416;2022-07-29T12:50:34;101632.41;;;24.13;30.57
12666;BME280;58531;59.050;17.416;2022-07-29T12:53:11;101629.34;;;24.33;30.92
12666;BME280;58531;59.050;17.416;2022-07-29T12:55:40;101628.97;;;24.58;30.97
12666;BME280;58531;59.050;17.416;2022-07-29T12:58:06;101633.31;;;24.26;31.24